sensor_id;sensor_type;location;lat;lon;timestamp;pressure;altitude;pressure_sealevel;temperature;humidity
50302;BME280;36550;50.472;19.744;2024-03-02T00:01:33;97533.48;;;5.15;92.23
50302;BME280;36550;50.472;19.744;2024-03-02T00:04:17;97540.74;;;5.12;92.14
50302;BME280;36550;50.472;19.744;2024-03-02T00:07:01;97543.46;;;5.09;92.16
50302;BME280;36550;50.472;19.744;2024-03-02T00:09:46;97543.87;;;5.06;92.07
50302;BME280;36550;50.472;19.744;2024-03-02T00:12:30;97546.80;;;5.03;92.18
50302;BME280;36550;50.472;19.744;2024-03-02T00:18:06;97540.37;;;5.02;92.38
50302;BME280;36550;50.472;19.744;2024-03-02T00:20:55;97542.58;;;5.01;92.48
50302;BME280;36550;50.472;19.744;2024-03-02T00:23:40;97541.14;;;5.00;92.47
50302;BME280;36550;50.472;19.744;2024-03-02T00:26:25;97540.18;;;4.99;92.53
50302;BME280;36550;50.472;19.744;2024-03-02T00:29:15;97536.58;;;5.00;92.59
50302;BME280;36550;50.472;19.744;2024-03-02T00:32:00;97541.73;;;5.02;92.66
50302;BME280;36550;50.472;19.744;2024-03-02T00:34:45;97541.27;;;5.04;92.86
50302;BME280;36550;50.472;19.744;2024-03-02T00:37:29;97536.14;;;5.06;92.96
50302;BME280;36550;50.472;19.744;2024-03-02T00:40:14;97532.82;;;5.08;93.02
50302;BME280;36550;50.472;19.744;2024-03-02T00:42:59;97535.58;;;5.08;93.03
50302;BME280;36550;50.472;19.744;2024-03-02T00:45:43;97536.40;;;5.08;93.13
50302;BME280;36550;50.472;19.744;2024-03-02T00:48:27;97539.85;;;5.07;93.02
50302;BME280;36550;50.472;19.744;2024-03-02T00:51:11;97540.45;;;5.06;93.05
50302;BME280;36550;50.472;19.744;2024-03-02T00:54:00;97536.88;;;5.05;93.04
50302;BME280;36550;50.472;19.744;2024-03-02T00:56:44;97534.24;;;5.02;93.05
50302;BME280;36550;50.472;19.744;2024-03-02T00:59:28;97541.46;;;5.00;93.10
50302;BME280;36550;50.472;19.744;2024-03-02T01:02:13;97542.85;;;5.00;93.13
50302;BME280;36550;50.472;19.744;2024-03-02T01:04:58;97538.73;;;5.00;93.13
50302;BME280;36550;50.472;19.744;2024-03-02T01:07:42;97538.10;;;4.99;93.20
50302;BME280;36550;50.472;19.744;2024-03-02T01:10:26;97540.05;;;5.00;93.24
50302;BME280;36550;50.472;19.744;2024-03-02T01:13:10;97537.41;;;5.01;93.27
50302;BME280;36550;50.472;19.744;2024-03-02T01:15:55;97533.69;;;5.01;93.27
50302;BME280;36550;50.472;19.744;2024-03-02T01:18:39;97533.62;;;5.01;93.26
50302;BME280;36550;50.472;19.744;2024-03-02T01:21:23;97531.29;;;5.01;93.35
50302;BME280;36550;50.472;19.744;2024-03-02T01:24:08;97529.49;;;5.02;93.44
50302;BME280;36550;50.472;19.744;2024-03-02T01:26:51;97526.79;;;5.04;93.62
50302;BME280;36550;50.472;19.744;2024-03-02T01:29:36;97525.90;;;5.05;93.75
50302;BME280;36550;50.472;19.744;2024-03-02T01:32:20;97516.92;;;5.07;93.79
50302;BME280;36550;50.472;19.744;2024-03-02T01:35:05;97513.36;;;5.09;93.91
50302;BME280;36550;50.472;19.744;2024-03-02T01:37:50;97512.38;;;5.11;94.00
50302;BME280;36550;50.472;19.744;2024-03-02T01:40:35;97511.75;;;5.15;94.14
50302;BME280;36550;50.472;19.744;2024-03-02T01:43:19;97507.81;;;5.18;94.21
50302;BME280;36550;50.472;19.744;2024-03-02T01:46:03;97505.47;;;5.21;94.32
50302;BME280;36550;50.472;19.744;2024-03-02T01:48:48;97504.28;;;5.25;94.33
50302;BME280;36550;50.472;19.744;2024-03-02T01:51:32;97497.33;;;5.28;94.32
50302;BME280;36550;50.472;19.744;2024-03-02T01:54:16;97494.46;;;5.31;94.38
50302;BME280;36550;50.472;19.744;2024-03-02T01:57:00;97493.04;;;5.33;94.21
50302;BME280;36550;50.472;19.744;2024-03-02T01:59:45;97490.71;;;5.35;94.21
50302;BME280;36550;50.472;19.744;2024-03-02T02:02:31;97492.41;;;5.37;94.17
50302;BME280;36550;50.472;19.744;2024-03-02T02:05:15;97487.52;;;5.38;94.32
50302;BME280;36550;50.472;19.744;2024-03-02T02:08:01;97483.80;;;5.40;94.37
50302;BME280;36550;50.472;19.744;2024-03-02T02:10:45;97479.85;;;5.41;94.26
50302;BME280;36550;50.472;19.744;2024-03-02T02:13:30;97471.61;;;5.40;94.28
50302;BME280;36550;50.472;19.744;2024-03-02T02:16:14;97470.25;;;5.40;94.24
50302;BME280;36550;50.472;19.744;2024-03-02T02:18:58;97470.69;;;5.39;94.39
50302;BME280;36550;50.472;19.744;2024-03-02T02:21:43;97463.48;;;5.40;94.42
50302;BME280;36550;50.472;19.744;2024-03-02T02:24:27;97465.83;;;5.41;94.61
50302;BME280;36550;50.472;19.744;2024-03-02T02:27:11;97465.10;;;5.43;94.58
50302;BME280;36550;50.472;19.744;2024-03-02T02:29:59;97468.49;;;5.43;94.72
50302;BME280;36550;50.472;19.744;2024-03-02T02:32:45;97462.84;;;5.45;94.80
50302;BME280;36550;50.472;19.744;2024-03-02T02:35:29;97461.14;;;5.47;94.84
50302;BME280;36550;50.472;19.744;2024-03-02T02:38:13;97462.40;;;5.48;94.85
50302;BME280;36550;50.472;19.744;2024-03-02T02:40:58;97465.96;;;5.49;94.83
50302;BME280;36550;50.472;19.744;2024-03-02T02:43:42;97471.08;;;5.49;94.82
50302;BME280;36550;50.472;19.744;2024-03-02T02:46:27;97469.48;;;5.50;94.64
50302;BME280;36550;50.472;19.744;2024-03-02T02:49:11;97471.52;;;5.50;94.70
50302;BME280;36550;50.472;19.744;2024-03-02T02:51:55;97468.84;;;5.49;94.53
50302;BME280;36550;50.472;19.744;2024-03-02T02:54:39;97469.80;;;5.50;94.57
50302;BME280;36550;50.472;19.744;2024-03-02T02:57:23;97469.75;;;5.51;94.71
50302;BME280;36550;50.472;19.744;2024-03-02T03:00:10;97466.96;;;5.53;94.70
50302;BME280;36550;50.472;19.744;2024-03-02T03:02:54;97466.86;;;5.52;94.52
50302;BME280;36550;50.472;19.744;2024-03-02T03:05:38;97465.34;;;5.51;94.51
50302;BME280;36550;50.472;19.744;2024-03-02T03:08:22;97466.59;;;5.50;94.54
50302;BME280;36550;50.472;19.744;2024-03-02T03:11:07;97464.52;;;5.49;94.55
50302;BME280;36550;50.472;19.744;2024-03-02T03:13:51;97462.06;;;5.47;94.51
50302;BME280;36550;50.472;19.744;2024-03-02T03:16:35;97465.00;;;5.44;94.45
50302;BME280;36550;50.472;19.744;2024-03-02T03:19:19;97467.27;;;5.43;94.48
50302;BME280;36550;50.472;19.744;2024-03-02T03:22:03;97464.91;;;5.43;94.61
50302;BME280;36550;50.472;19.744;2024-03-02T03:24:47;97460.98;;;5.42;94.75
50302;BME280;36550;50.472;19.744;2024-03-02T03:27:31;97459.57;;;5.42;94.72
50302;BME280;36550;50.472;19.744;2024-03-02T03:30:16;97456.48;;;5.42;94.83
50302;BME280;36550;50.472;19.744;2024-03-02T03:33:00;97460.73;;;5.43;94.93
50302;BME280;36550;50.472;19.744;2024-03-02T03:35:44;97465.33;;;5.43;94.88
50302;BME280;36550;50.472;19.744;2024-03-02T03:38:29;97462.93;;;5.44;94.92
50302;BME280;36550;50.472;19.744;2024-03-02T03:41:14;97465.28;;;5.45;94.92
50302;BME280;36550;50.472;19.744;2024-03-02T03:43:58;97460.23;;;5.46;94.87
50302;BME280;36550;50.472;19.744;2024-03-02T03:46:43;97462.67;;;5.46;94.76
50302;BME280;36550;50.472;19.744;2024-03-02T03:49:27;97463.23;;;5.46;94.80
50302;BME280;36550;50.472;19.744;2024-03-02T03:52:11;97458.62;;;5.46;94.76
50302;BME280;36550;50.472;19.744;2024-03-02T03:54:55;97459.08;;;5.48;94.90
50302;BME280;36550;50.472;19.744;2024-03-02T03:57:39;97458.90;;;5.49;95.04
50302;BME280;36550;50.472;19.744;2024-03-02T04:00:23;97459.27;;;5.50;95.18
50302;BME280;36550;50.472;19.744;2024-03-02T04:03:07;97455.95;;;5.51;95.07
50302;BME280;36550;50.472;19.744;2024-03-02T04:05:51;97451.24;;;5.47;94.88
50302;BME280;36550;50.472;19.744;2024-03-02T04:08:36;97448.89;;;5.45;94.84
50302;BME280;36550;50.472;19.744;2024-03-02T04:11:20;97453.36;;;5.43;94.97
50302;BME280;36550;50.472;19.744;2024-03-02T04:14:04;97450.50;;;5.40;95.03
50302;BME280;36550;50.472;19.744;2024-03-02T04:16:50;97444.38;;;5.37;94.98
50302;BME280;36550;50.472;19.744;2024-03-02T04:19:34;97445.05;;;5.33;95.11
50302;BME280;36550;50.472;19.744;2024-03-02T04:22:19;97452.29;;;5.30;95.12
50302;BME280;36550;50.472;19.744;2024-03-02T04:25:03;97446.54;;;5.27;95.13
50302;BME280;36550;50.472;19.744;2024-03-02T04:27:48;97449.21;;;5.25;95.21
50302;BME280;36550;50.472;19.744;2024-03-02T04:30:32;97449.91;;;5.22;95.20
50302;BME280;36550;50.472;19.744;2024-03-02T04:33:17;97445.26;;;5.19;95.23
50302;BME280;36550;50.472;19.744;2024-03-02T04:36:01;97445.27;;;5.16;95.25
50302;BME280;36550;50.472;19.744;2024-03-02T04:38:45;97449.86;;;5.13;95.19
50302;BME280;36550;50.472;19.744;2024-03-02T04:41:29;97451.20;;;5.10;95.21
50302;BME280;36550;50.472;19.744;2024-03-02T04:44:13;97451.11;;;5.08;95.29
50302;BME280;36550;50.472;19.744;2024-03-02T04:46:57;97451.36;;;5.06;95.25
50302;BME280;36550;50.472;19.744;2024-03-02T04:49:42;97454.02;;;5.05;95.22
50302;BME280;36550;50.472;19.744;2024-03-02T04:52:27;97453.79;;;5.03;95.21
50302;BME280;36550;50.472;19.744;2024-03-02T04:55:11;97454.97;;;4.99;95.16
50302;BME280;36550;50.472;19.744;2024-03-02T04:58:14;97463.09;;;4.93;94.88
50302;BME280;36550;50.472;19.744;2024-03-02T05:00:58;97463.05;;;4.83;94.58
50302;BME280;36550;50.472;19.744;2024-03-02T05:03:42;97458.98;;;4.76;94.65
50302;BME280;36550;50.472;19.744;2024-03-02T05:06:27;97465.04;;;4.74;94.91
50302;BME280;36550;50.472;19.744;2024-03-02T05:09:11;97467.09;;;4.71;94.94
50302;BME280;36550;50.472;19.744;2024-03-02T05:11:55;97467.58;;;4.69;95.12
50302;BME280;36550;50.472;19.744;2024-03-02T05:14:58;97467.27;;;4.66;95.11
50302;BME280;36550;50.472;19.744;2024-03-02T05:17:42;97467.73;;;4.62;95.05
50302;BME280;36550;50.472;19.744;2024-03-02T05:20:26;97463.09;;;4.58;94.86
50302;BME280;36550;50.472;19.744;2024-03-02T05:23:10;97462.78;;;4.57;94.99
50302;BME280;36550;50.472;19.744;2024-03-02T05:25:55;97465.23;;;4.56;94.94
50302;BME280;36550;50.472;19.744;2024-03-02T05:28:40;97466.08;;;4.55;95.13
50302;BME280;36550;50.472;19.744;2024-03-02T05:31:24;97466.66;;;4.54;95.26
50302;BME280;36550;50.472;19.744;2024-03-02T05:34:08;97470.89;;;4.51;95.18
50302;BME280;36550;50.472;19.744;2024-03-02T05:36:52;97474.69;;;4.48;95.18
50302;BME280;36550;50.472;19.744;2024-03-02T05:39:37;97481.39;;;4.45;95.04
50302;BME280;36550;50.472;19.744;2024-03-02T05:42:21;97486.36;;;4.41;94.83
50302;BME280;36550;50.472;19.744;2024-03-02T05:45:05;97488.70;;;4.38;94.75
50302;BME280;36550;50.472;19.744;2024-03-02T05:47:49;97488.73;;;4.36;94.68
50302;BME280;36550;50.472;19.744;2024-03-02T05:50:33;97492.79;;;4.35;94.61
50302;BME280;36550;50.472;19.744;2024-03-02T05:53:17;97501.78;;;4.35;94.75
50302;BME280;36550;50.472;19.744;2024-03-02T05:56:02;97502.93;;;4.35;94.81
50302;BME280;36550;50.472;19.744;2024-03-02T05:58:48;97502.05;;;4.37;95.01
50302;BME280;36550;50.472;19.744;2024-03-02T06:01:42;97512.45;;;4.37;94.96
50302;BME280;36550;50.472;19.744;2024-03-02T06:04:26;97514.28;;;4.36;94.76
50302;BME280;36550;50.472;19.744;2024-03-02T06:07:10;97513.96;;;4.37;94.76
50302;BME280;36550;50.472;19.744;2024-03-02T06:09:55;97517.14;;;4.39;94.88
50302;BME280;36550;50.472;19.744;2024-03-02T06:12:39;97522.94;;;4.41;94.97
50302;BME280;36550;50.472;19.744;2024-03-02T06:15:23;97527.80;;;4.45;95.20
50302;BME280;36550;50.472;19.744;2024-03-02T06:18:07;97533.69;;;4.50;95.32
50302;BME280;36550;50.472;19.744;2024-03-02T06:20:51;97530.98;;;4.57;95.50
50302;BME280;36550;50.472;19.744;2024-03-02T06:23:35;97523.74;;;4.63;95.57
50302;BME280;36550;50.472;19.744;2024-03-02T06:26:20;97526.42;;;4.71;95.70
50302;BME280;36550;50.472;19.744;2024-03-02T06:29:04;97516.92;;;4.77;95.68
50302;BME280;36550;50.472;19.744;2024-03-02T06:31:48;97511.86;;;4.81;95.42
50302;BME280;36550;50.472;19.744;2024-03-02T06:34:32;97508.44;;;4.83;95.13
50302;BME280;36550;50.472;19.744;2024-03-02T06:37:16;97508.82;;;4.88;95.15
50302;BME280;36550;50.472;19.744;2024-03-02T06:40:01;97513.53;;;4.95;95.27
50302;BME280;36550;50.472;19.744;2024-03-02T06:42:45;97516.75;;;5.05;95.43
50302;BME280;36550;50.472;19.744;2024-03-02T06:45:29;97527.08;;;5.14;95.61
50302;BME280;36550;50.472;19.744;2024-03-02T06:48:14;97530.36;;;5.22;95.67
50302;BME280;36550;50.472;19.744;2024-03-02T06:51:03;97525.59;;;5.31;95.82
50302;BME280;36550;50.472;19.744;2024-03-02T06:53:47;97524.14;;;5.39;95.82
50302;BME280;36550;50.472;19.744;2024-03-02T06:56:31;97523.33;;;5.49;95.81
50302;BME280;36550;50.472;19.744;2024-03-02T06:59:16;97521.52;;;5.60;95.77
50302;BME280;36550;50.472;19.744;2024-03-02T07:02:00;97524.64;;;5.70;95.69
50302;BME280;36550;50.472;19.744;2024-03-02T07:04:46;97528.60;;;5.82;95.76
50302;BME280;36550;50.472;19.744;2024-03-02T07:07:30;97531.68;;;5.95;95.71
50302;BME280;36550;50.472;19.744;2024-03-02T07:10:15;97534.98;;;6.08;95.66
50302;BME280;36550;50.472;19.744;2024-03-02T07:13:00;97535.63;;;6.19;95.65
50302;BME280;36550;50.472;19.744;2024-03-02T07:15:44;97535.29;;;6.27;95.52
50302;BME280;36550;50.472;19.744;2024-03-02T07:18:47;97531.80;;;6.35;95.31
50302;BME280;36550;50.472;19.744;2024-03-02T07:21:35;97526.58;;;6.43;95.28
50302;BME280;36550;50.472;19.744;2024-03-02T07:24:20;97521.67;;;6.54;95.32
50302;BME280;36550;50.472;19.744;2024-03-02T07:27:04;97520.50;;;6.67;95.49
50302;BME280;36550;50.472;19.744;2024-03-02T07:29:48;97522.81;;;6.77;95.34
50302;BME280;36550;50.472;19.744;2024-03-02T07:32:33;97521.29;;;6.83;95.02
50302;BME280;36550;50.472;19.744;2024-03-02T07:35:17;97521.77;;;6.86;94.92
50302;BME280;36550;50.472;19.744;2024-03-02T07:38:02;97521.23;;;6.92;94.88
50302;BME280;36550;50.472;19.744;2024-03-02T07:40:46;97534.50;;;7.02;95.04
50302;BME280;36550;50.472;19.744;2024-03-02T07:43:31;97534.49;;;7.13;95.12
50302;BME280;36550;50.472;19.744;2024-03-02T07:46:17;97530.58;;;7.24;95.10
50302;BME280;36550;50.472;19.744;2024-03-02T07:49:01;97530.88;;;7.38;95.33
50302;BME280;36550;50.472;19.744;2024-03-02T07:51:45;97540.80;;;7.52;95.32
50302;BME280;36550;50.472;19.744;2024-03-02T07:54:29;97539.99;;;7.60;95.22
50302;BME280;36550;50.472;19.744;2024-03-02T07:57:14;97534.64;;;7.66;95.12
50302;BME280;36550;50.472;19.744;2024-03-02T07:59:58;97532.67;;;7.75;95.07
50302;BME280;36550;50.472;19.744;2024-03-02T08:02:43;97538.20;;;7.85;95.12
50302;BME280;36550;50.472;19.744;2024-03-02T08:05:28;97544.45;;;7.94;95.09
50302;BME280;36550;50.472;19.744;2024-03-02T08:08:12;97545.96;;;8.01;94.91
50302;BME280;36550;50.472;19.744;2024-03-02T08:10:56;97540.31;;;8.11;94.95
50302;BME280;36550;50.472;19.744;2024-03-02T08:13:40;97545.50;;;8.20;94.78
50302;BME280;36550;50.472;19.744;2024-03-02T08:16:24;97547.88;;;8.28;94.60
50302;BME280;36550;50.472;19.744;2024-03-02T08:19:09;97550.10;;;8.38;94.59
50302;BME280;36550;50.472;19.744;2024-03-02T08:21:53;97549.11;;;8.47;94.37
50302;BME280;36550;50.472;19.744;2024-03-02T08:24:37;97546.98;;;8.53;94.34
50302;BME280;36550;50.472;19.744;2024-03-02T08:27:22;97548.66;;;8.58;94.24
50302;BME280;36550;50.472;19.744;2024-03-02T08:30:06;97543.71;;;8.63;94.11
50302;BME280;36550;50.472;19.744;2024-03-02T08:32:52;97544.20;;;8.69;94.02
50302;BME280;36550;50.472;19.744;2024-03-02T08:35:36;97548.55;;;8.76;94.24
50302;BME280;36550;50.472;19.744;2024-03-02T08:38:21;97545.40;;;8.80;93.98
50302;BME280;36550;50.472;19.744;2024-03-02T08:41:05;97543.09;;;8.85;94.13
50302;BME280;36550;50.472;19.744;2024-03-02T08:43:49;97549.73;;;8.90;94.01
50302;BME280;36550;50.472;19.744;2024-03-02T08:46:33;97552.73;;;8.92;93.83
50302;BME280;36550;50.472;19.744;2024-03-02T08:49:17;97552.64;;;8.93;93.80
50302;BME280;36550;50.472;19.744;2024-03-02T08:52:02;97558.04;;;8.96;93.67
50302;BME280;36550;50.472;19.744;2024-03-02T08:54:46;97555.30;;;8.98;93.57
50302;BME280;36550;50.472;19.744;2024-03-02T08:57:31;97555.48;;;9.00;93.61
50302;BME280;36550;50.472;19.744;2024-03-02T09:00:15;97554.16;;;9.05;93.45
50302;BME280;36550;50.472;19.744;2024-03-02T09:03:01;97553.17;;;9.11;93.48
50302;BME280;36550;50.472;19.744;2024-03-02T09:05:45;97561.83;;;9.16;93.30
50302;BME280;36550;50.472;19.744;2024-03-02T09:08:29;97557.73;;;9.21;93.05
50302;BME280;36550;50.472;19.744;2024-03-02T09:11:14;97560.95;;;9.25;92.99
50302;BME280;36550;50.472;19.744;2024-03-02T09:13:58;97567.16;;;9.30;92.96
50302;BME280;36550;50.472;19.744;2024-03-02T09:16:42;97566.83;;;9.39;93.13
50302;BME280;36550;50.472;19.744;2024-03-02T09:19:27;97568.48;;;9.48;92.98
50302;BME280;36550;50.472;19.744;2024-03-02T09:22:10;97564.91;;;9.54;92.94
50302;BME280;36550;50.472;19.744;2024-03-02T09:24:54;97570.07;;;9.62;92.81
50302;BME280;36550;50.472;19.744;2024-03-02T09:27:39;97573.80;;;9.70;92.72
50302;BME280;36550;50.472;19.744;2024-03-02T09:30:23;97574.30;;;9.79;92.60
50302;BME280;36550;50.472;19.744;2024-03-02T09:33:07;97574.76;;;9.85;92.26
50302;BME280;36550;50.472;19.744;2024-03-02T09:35:51;97572.23;;;9.89;91.92
50302;BME280;36550;50.472;19.744;2024-03-02T09:38:35;97573.15;;;9.96;92.04
50302;BME280;36550;50.472;19.744;2024-03-02T09:41:20;97572.09;;;10.04;91.85
50302;BME280;36550;50.472;19.744;2024-03-02T09:44:04;97572.70;;;10.10;91.73
50302;BME280;36550;50.472;19.744;2024-03-02T09:46:49;97575.42;;;10.17;91.77
50302;BME280;36550;50.472;19.744;2024-03-02T09:49:34;97578.68;;;10.27;91.83
50302;BME280;36550;50.472;19.744;2024-03-02T09:52:18;97583.92;;;10.36;91.69
50302;BME280;36550;50.472;19.744;2024-03-02T09:55:03;97585.09;;;10.42;91.57
50302;BME280;36550;50.472;19.744;2024-03-02T09:57:49;97583.31;;;10.45;91.30
50302;BME280;36550;50.472;19.744;2024-03-02T10:00:33;97585.79;;;10.51;91.09
50302;BME280;36550;50.472;19.744;2024-03-02T10:03:19;97585.61;;;10.54;90.84
50302;BME280;36550;50.472;19.744;2024-03-02T10:06:23;97584.02;;;10.56;90.52
50302;BME280;36550;50.472;19.744;2024-03-02T10:09:07;97582.05;;;10.58;90.46
50302;BME280;36550;50.472;19.744;2024-03-02T10:11:51;97582.04;;;10.62;90.61
50302;BME280;36550;50.472;19.744;2024-03-02T10:14:36;97580.40;;;10.67;90.54
50302;BME280;36550;50.472;19.744;2024-03-02T10:17:20;97578.67;;;10.71;90.54
50302;BME280;36550;50.472;19.744;2024-03-02T10:20:26;97574.06;;;10.76;90.42
50302;BME280;36550;50.472;19.744;2024-03-02T10:23:16;97577.82;;;10.74;90.06
50302;BME280;36550;50.472;19.744;2024-03-02T10:26:01;97574.33;;;10.72;89.88
50302;BME280;36550;50.472;19.744;2024-03-02T10:28:48;97578.51;;;10.70;89.46
50302;BME280;36550;50.472;19.744;2024-03-02T10:31:32;97576.80;;;10.72;89.31
50302;BME280;36550;50.472;19.744;2024-03-02T10:34:16;97577.61;;;10.75;89.22
50302;BME280;36550;50.472;19.744;2024-03-02T10:37:01;97580.13;;;10.78;88.65
50302;BME280;36550;50.472;19.744;2024-03-02T10:39:46;97581.52;;;10.81;88.27
50302;BME280;36550;50.472;19.744;2024-03-02T10:42:30;97582.73;;;10.86;87.71
50302;BME280;36550;50.472;19.744;2024-03-02T10:45:15;97583.40;;;10.91;87.54
50302;BME280;36550;50.472;19.744;2024-03-02T10:48:01;97582.66;;;10.95;87.30
50302;BME280;36550;50.472;19.744;2024-03-02T10:50:46;97587.41;;;10.92;86.99
50302;BME280;36550;50.472;19.744;2024-03-02T10:53:30;97586.61;;;10.92;87.00
50302;BME280;36550;50.472;19.744;2024-03-02T10:56:21;97583.40;;;10.96;87.27
50302;BME280;36550;50.472;19.744;2024-03-02T10:59:27;97584.91;;;11.06;87.45
50302;BME280;36550;50.472;19.744;2024-03-02T11:02:15;97581.83;;;11.11;86.87
50302;BME280;36550;50.472;19.744;2024-03-02T11:05:00;97581.48;;;11.14;86.43
50302;BME280;36550;50.472;19.744;2024-03-02T11:07:53;97576.77;;;11.17;86.67
50302;BME280;36550;50.472;19.744;2024-03-02T11:10:45;97575.23;;;11.19;86.51
50302;BME280;36550;50.472;19.744;2024-03-02T11:13:33;97573.60;;;11.20;86.33
50302;BME280;36550;50.472;19.744;2024-03-02T11:16:34;97568.73;;;11.21;86.43
50302;BME280;36550;50.472;19.744;2024-03-02T11:19:19;97567.61;;;11.26;86.62
50302;BME280;36550;50.472;19.744;2024-03-02T11:22:03;97567.78;;;11.32;86.34
50302;BME280;36550;50.472;19.744;2024-03-02T11:24:49;97564.83;;;11.36;86.17
50302;BME280;36550;50.472;19.744;2024-03-02T11:33:23;97554.04;;;11.77;86.22
50302;BME280;36550;50.472;19.744;2024-03-02T11:36:09;97557.22;;;11.88;85.64
50302;BME280;36550;50.472;19.744;2024-03-02T11:38:54;97556.02;;;11.95;85.62
50302;BME280;36550;50.472;19.744;2024-03-02T11:41:39;97554.38;;;12.01;85.41
50302;BME280;36550;50.472;19.744;2024-03-02T11:44:32;97550.83;;;12.00;85.21
50302;BME280;36550;50.472;19.744;2024-03-02T11:47:17;97547.73;;;12.01;85.55
50302;BME280;36550;50.472;19.744;2024-03-02T11:50:01;97543.81;;;12.05;85.47
50302;BME280;36550;50.472;19.744;2024-03-02T11:52:46;97545.70;;;12.13;85.32
50302;BME280;36550;50.472;19.744;2024-03-02T11:55:31;97543.64;;;12.21;85.04
50302;BME280;36550;50.472;19.744;2024-03-02T11:58:16;97543.51;;;12.26;84.58
50302;BME280;36550;50.472;19.744;2024-03-02T12:01:01;97544.41;;;12.29;84.68
50302;BME280;36550;50.472;19.744;2024-03-02T12:03:47;97543.33;;;12.32;84.61
50302;BME280;36550;50.472;19.744;2024-03-02T12:06:32;97543.90;;;12.34;84.23
50302;BME280;36550;50.472;19.744;2024-03-02T12:09:16;97539.34;;;12.40;83.87
50302;BME280;36550;50.472;19.744;2024-03-02T12:12:09;97540.70;;;12.48;83.99
50302;BME280;36550;50.472;19.744;2024-03-02T12:14:54;97541.92;;;12.58;83.88
50302;BME280;36550;50.472;19.744;2024-03-02T12:17:39;97541.28;;;12.65;83.60
50302;BME280;36550;50.472;19.744;2024-03-02T12:20:25;97539.23;;;12.68;83.31
50302;BME280;36550;50.472;19.744;2024-03-02T12:23:09;97543.14;;;12.71;82.89
50302;BME280;36550;50.472;19.744;2024-03-02T12:25:54;97538.46;;;12.76;82.77
50302;BME280;36550;50.472;19.744;2024-03-02T12:28:38;97534.85;;;12.83;82.74
50302;BME280;36550;50.472;19.744;2024-03-02T12:31:23;97532.50;;;12.96;82.69
50302;BME280;36550;50.472;19.744;2024-03-02T12:34:08;97532.15;;;13.05;82.62
50302;BME280;36550;50.472;19.744;2024-03-02T12:36:52;97530.73;;;13.08;81.72
50302;BME280;36550;50.472;19.744;2024-03-02T12:39:37;97527.78;;;13.08;81.69
50302;BME280;36550;50.472;19.744;2024-03-02T12:42:21;97530.09;;;13.05;81.16
50302;BME280;36550;50.472;19.744;2024-03-02T12:45:06;97535.93;;;13.00;81.22
50302;BME280;36550;50.472;19.744;2024-03-02T12:47:51;97539.23;;;12.96;81.12
50302;BME280;36550;50.472;19.744;2024-03-02T12:50:36;97533.92;;;12.93;81.24
50302;BME280;36550;50.472;19.744;2024-03-02T12:53:21;97535.44;;;12.90;80.97
50302;BME280;36550;50.472;19.744;2024-03-02T12:56:05;97533.08;;;12.89;80.99
50302;BME280;36550;50.472;19.744;2024-03-02T12:58:55;97528.81;;;12.89;80.85
50302;BME280;36550;50.472;19.744;2024-03-02T13:01:50;97525.20;;;12.86;80.52
50302;BME280;36550;50.472;19.744;2024-03-02T13:04:34;97530.53;;;12.82;80.73
50302;BME280;36550;50.472;19.744;2024-03-02T13:07:19;97535.53;;;12.82;80.60
50302;BME280;36550;50.472;19.744;2024-03-02T13:10:05;97538.62;;;12.75;79.98
50302;BME280;36550;50.472;19.744;2024-03-02T13:12:50;97536.17;;;12.68;80.03
50302;BME280;36550;50.472;19.744;2024-03-02T13:15:34;97531.08;;;12.68;80.69
50302;BME280;36550;50.472;19.744;2024-03-02T13:18:18;97531.14;;;12.74;80.82
50302;BME280;36550;50.472;19.744;2024-03-02T13:21:03;97534.35;;;12.75;80.45
50302;BME280;36550;50.472;19.744;2024-03-02T13:23:48;97524.14;;;12.75;80.83
50302;BME280;36550;50.472;19.744;2024-03-02T13:26:32;97519.81;;;12.75;80.63
50302;BME280;36550;50.472;19.744;2024-03-02T13:29:16;97521.70;;;12.74;80.42
50302;BME280;36550;50.472;19.744;2024-03-02T13:32:00;97522.16;;;12.65;79.84
50302;BME280;36550;50.472;19.744;2024-03-02T13:34:44;97518.98;;;12.60;80.14
50302;BME280;36550;50.472;19.744;2024-03-02T13:37:28;97520.05;;;12.63;80.65
50302;BME280;36550;50.472;19.744;2024-03-02T13:40:12;97522.58;;;12.67;80.46
50302;BME280;36550;50.472;19.744;2024-03-02T13:43:02;97522.55;;;12.70;80.30
50302;BME280;36550;50.472;19.744;2024-03-02T13:45:47;97523.83;;;12.76;80.85
50302;BME280;36550;50.472;19.744;2024-03-02T13:48:31;97523.63;;;12.77;80.67
50302;BME280;36550;50.472;19.744;2024-03-02T13:51:16;97529.30;;;12.75;80.43
50302;BME280;36550;50.472;19.744;2024-03-02T13:54:00;97529.08;;;12.71;80.75
50302;BME280;36550;50.472;19.744;2024-03-02T13:56:44;97532.23;;;12.64;80.48
50302;BME280;36550;50.472;19.744;2024-03-02T13:59:28;97529.67;;;12.58;80.71
50302;BME280;36550;50.472;19.744;2024-03-02T14:02:13;97528.23;;;12.52;81.02
50302;BME280;36550;50.472;19.744;2024-03-02T14:04:57;97527.17;;;12.50;80.97
50302;BME280;36550;50.472;19.744;2024-03-02T14:07:42;97524.74;;;12.48;80.91
50302;BME280;36550;50.472;19.744;2024-03-02T14:10:27;97521.91;;;12.49;80.93
50302;BME280;36550;50.472;19.744;2024-03-02T14:13:13;97521.23;;;12.50;81.07
50302;BME280;36550;50.472;19.744;2024-03-02T14:15:57;97523.44;;;12.51;81.09
50302;BME280;36550;50.472;19.744;2024-03-02T14:18:42;97519.98;;;12.55;81.19
50302;BME280;36550;50.472;19.744;2024-03-02T14:21:26;97522.98;;;12.54;80.93
50302;BME280;36550;50.472;19.744;2024-03-02T14:24:10;97526.54;;;12.50;80.81
50302;BME280;36550;50.472;19.744;2024-03-02T14:26:54;97532.77;;;12.42;80.64
50302;BME280;36550;50.472;19.744;2024-03-02T14:29:38;97531.02;;;12.36;80.87
50302;BME280;36550;50.472;19.744;2024-03-02T14:32:24;97532.64;;;12.31;81.08
50302;BME280;36550;50.472;19.744;2024-03-02T14:35:08;97531.25;;;12.30;81.14
50302;BME280;36550;50.472;19.744;2024-03-02T14:37:56;97531.20;;;12.27;81.13
50302;BME280;36550;50.472;19.744;2024-03-02T14:40:41;97534.23;;;12.25;81.16